createdAt,value
2018-04-12T00:00:24.754Z,57.45
2018-04-12T00:01:31.271Z,57.50
2018-04-12T00:02:37.056Z,57.85
2018-04-12T00:03:42.819Z,58.47
2018-04-12T00:04:49.383Z,55.30
2018-04-12T00:05:55.211Z,56.00
2018-04-12T00:07:00.988Z,53.17
2018-04-12T00:08:06.757Z,56.63
2018-04-12T00:09:12.528Z,53.55
2018-04-12T00:10:19.053Z,55.17
2018-04-12T00:11:24.864Z,56.05
2018-04-12T00:12:30.797Z,55.58
2018-04-12T00:13:36.591Z,53.85
2018-04-12T00:14:42.363Z,55.80
2018-04-12T00:15:48.895Z,56.30
2018-04-12T00:16:54.700Z,54.92
2018-04-12T00:18:00.471Z,59.42
2018-04-12T00:19:06.243Z,58.38
2018-04-12T00:20:12.784Z,56.97
2018-04-12T00:21:18.584Z,56.08
2018-04-12T00:22:24.366Z,57.15
2018-04-12T00:23:30.147Z,55.85
2018-04-12T00:24:36.672Z,59.38
2018-04-12T00:25:43.203Z,55.95
2018-04-12T00:26:49.731Z,57.42
2018-04-12T00:27:55.283Z,57.40
2018-04-12T00:29:01.064Z,57.78
2018-04-12T00:30:06.584Z,56.15
2018-04-12T00:31:12.406Z,55.88
2018-04-12T00:32:18.172Z,59.65
2018-04-12T00:33:23.970Z,57.22
2018-04-12T00:34:30.491Z,56.83
2018-04-12T00:35:36.261Z,57.70
2018-04-12T00:36:42.791Z,56.90
2018-04-12T00:37:48.579Z,56.40
2018-04-12T00:38:54.403Z,55.75
2018-04-12T00:40:01.123Z,57.83
2018-04-12T00:41:07.027Z,56.67
2018-04-12T00:42:13.560Z,55.83
2018-04-12T00:43:19.337Z,55.80
2018-04-12T00:44:25.127Z,58.38
2018-04-12T00:45:30.908Z,57.53
2018-04-12T00:46:36.845Z,55.12
2018-04-12T00:47:42.619Z,58.17
2018-04-12T00:48:48.391Z,59.80
2018-04-12T00:49:54.175Z,60.97
2018-04-12T00:51:00.746Z,59.20
2018-04-12T00:52:06.512Z,57.17
2018-04-12T00:53:12.035Z,58.13
2018-04-12T00:54:17.576Z,58.30
2018-04-12T00:55:23.362Z,60.70
2018-04-12T00:56:28.901Z,56.80
2018-04-12T00:57:34.663Z,57.53
2018-04-12T00:58:41.192Z,57.90
2018-04-12T00:59:47.525Z,56.17
2018-04-12T01:00:53.339Z,56.30
2018-04-12T01:01:59.103Z,57.92
2018-04-12T01:03:05.005Z,55.85
2018-04-12T01:04:11.537Z,57.55
2018-04-12T01:05:17.120Z,55.03
2018-04-12T01:06:22.904Z,55.90
2018-04-12T01:07:28.706Z,57.25
2018-04-12T01:08:34.459Z,58.85
2018-04-12T01:09:40.251Z,58.28
2018-04-12T01:10:46.012Z,56.45
2018-04-12T01:11:52.345Z,58.22
2018-04-12T01:12:58.107Z,58.80
2018-04-12T01:14:04.639Z,56.70
2018-04-12T01:15:10.419Z,57.53
2018-04-12T01:16:16.756Z,56.22
2018-04-12T01:17:22.571Z,58.42
2018-04-12T01:18:28.317Z,58.22
2018-04-12T01:19:34.180Z,55.20
2018-04-12T01:20:39.719Z,57.05
2018-04-12T01:21:46.248Z,59.53
2018-04-12T01:22:52.059Z,57.90
2018-04-12T01:23:57.852Z,60.25
2018-04-12T01:25:03.608Z,56.92
2018-04-12T01:26:10.146Z,57.95
2018-04-12T01:27:15.937Z,59.72
2018-04-12T01:28:21.726Z,57.67
2018-04-12T01:29:27.497Z,60.53
2018-04-12T01:30:33.264Z,58.60
2018-04-12T01:31:39.027Z,59.00
2018-04-12T01:32:43.884Z,58.15
2018-04-12T01:33:49.672Z,56.40
2018-04-12T01:34:55.431Z,59.00
2018-04-12T01:36:01.197Z,56.63
2018-04-12T01:37:06.956Z,57.47
2018-04-12T01:38:12.732Z,60.28
2018-04-12T01:39:18.515Z,58.95
2018-04-12T01:40:24.296Z,59.20
2018-04-12T01:41:30.823Z,61.08
2018-04-12T01:42:36.670Z,59.40
2018-04-12T01:43:43.219Z,59.70
2018-04-12T01:44:49.544Z,56.40
2018-04-12T01:45:55.349Z,57.80
2018-04-12T01:47:01.879Z,59.42
2018-04-12T01:48:07.653Z,58.80
2018-04-12T01:49:13.415Z,57.30
2018-04-12T01:50:19.211Z,58.75
2018-04-12T01:51:24.966Z,58.85
2018-04-12T01:52:30.504Z,59.20
2018-04-12T01:53:37.049Z,57.35
2018-04-12T01:54:42.594Z,59.25
2018-04-12T01:55:49.157Z,59.55
2018-04-12T01:56:54.918Z,57.05
2018-04-12T01:58:01.470Z,59.20
2018-04-12T01:59:07.243Z,60.25
2018-04-12T02:00:13.026Z,61.00
2018-04-12T02:01:18.847Z,61.83
2018-04-12T02:02:24.613Z,58.67
2018-04-12T02:03:30.391Z,58.53
2018-04-12T02:04:35.966Z,62.75
2018-04-12T02:05:41.793Z,61.25
2018-04-12T02:06:47.635Z,59.15
2018-04-12T02:07:53.415Z,59.88
2018-04-12T02:08:59.183Z,60.67
2018-04-12T02:10:04.623Z,58.80
2018-04-12T02:11:10.923Z,61.25
2018-04-12T02:12:16.731Z,60.47
2018-04-12T02:13:23.027Z,58.90
2018-04-12T02:14:28.803Z,59.70
2018-04-12T02:15:34.444Z,59.40
2018-04-12T02:16:40.216Z,59.38
2018-04-12T02:17:46.008Z,59.40
2018-04-12T02:18:51.539Z,60.28
2018-04-12T02:19:57.316Z,62.20
2018-04-12T02:21:03.883Z,59.30
2018-04-12T02:22:10.262Z,59.35
2018-04-12T02:23:15.870Z,63.28
2018-04-12T02:24:21.640Z,60.72
2018-04-12T02:25:28.207Z,62.47
2018-04-12T02:26:33.987Z,60.10
2018-04-12T02:27:39.763Z,63.03
2018-04-12T02:28:46.333Z,59.00
2018-04-12T02:29:51.868Z,61.55
2018-04-12T02:30:58.512Z,61.72
2018-04-12T02:32:04.840Z,62.90
2018-04-12T02:33:10.642Z,58.40
2018-04-12T02:34:16.447Z,63.65
2018-04-12T02:35:22.995Z,62.38
2018-04-12T02:36:28.758Z,60.28
2018-04-12T02:37:35.067Z,61.22
2018-04-12T02:38:40.594Z,64.75
2018-04-12T02:39:46.465Z,61.65
2018-04-12T02:40:52.399Z,63.78
2018-04-12T02:41:57.978Z,59.40
2018-04-12T02:43:04.512Z,59.90
2018-04-12T02:44:10.284Z,61.53
2018-04-12T02:45:16.841Z,63.15
2018-04-12T02:46:23.392Z,64.47
2018-04-12T02:47:29.169Z,62.55
2018-04-12T02:48:34.952Z,64.57
2018-04-12T02:49:40.712Z,64.03
2018-04-12T02:50:48.000Z,66.55
2018-04-12T02:51:54.552Z,63.10
2018-04-12T02:53:00.332Z,61.33
2018-04-12T02:54:05.890Z,60.00
2018-04-12T02:55:11.662Z,61.60
2018-04-12T02:56:18.236Z,64.05
2018-04-12T02:57:24.010Z,60.28
2018-04-12T02:58:29.789Z,61.92
2018-04-12T02:59:35.574Z,63.17
2018-04-12T03:00:42.112Z,62.47
2018-04-12T03:01:47.903Z,64.05
2018-04-12T03:02:53.680Z,61.83
2018-04-12T03:03:59.456Z,63.30
2018-04-12T03:05:05.656Z,62.78
2018-04-12T03:06:11.093Z,60.55
2018-04-12T03:07:16.894Z,64.80
2018-04-12T03:08:23.416Z,63.83
2018-04-12T03:09:29.187Z,61.63
2018-04-12T03:10:35.732Z,61.70
2018-04-12T03:11:41.520Z,63.72
2018-04-12T03:12:47.337Z,62.90
2018-04-12T03:13:53.539Z,63.83
2018-04-12T03:14:59.315Z,66.72
2018-04-12T03:16:05.087Z,66.10
2018-04-12T03:17:10.851Z,65.07
2018-04-12T03:18:16.647Z,63.60
2018-04-12T03:19:23.182Z,65.20
2018-04-12T03:20:28.943Z,65.87
2018-04-12T03:21:34.723Z,63.90
2018-04-12T03:22:40.489Z,65.55
2018-04-12T03:23:46.299Z,66.65
2018-04-12T03:24:52.105Z,63.92
2018-04-12T03:25:59.383Z,69.57
2018-04-12T03:27:05.164Z,64.35
2018-04-12T03:28:11.028Z,63.00
2018-04-12T03:29:16.900Z,63.92
2018-04-12T03:30:22.763Z,64.40
2018-04-12T03:31:28.539Z,66.32
2018-04-12T03:32:35.093Z,68.72
2018-04-12T03:33:40.871Z,65.53
2018-04-12T03:34:46.404Z,66.62
2018-04-12T03:35:52.172Z,67.70
2018-04-12T03:36:57.943Z,66.57
2018-04-12T03:38:04.478Z,64.55
2018-04-12T03:39:10.336Z,66.45
2018-04-12T03:40:16.911Z,64.18
2018-04-12T03:41:23.497Z,66.12
2018-04-12T03:42:30.106Z,67.57
2018-04-12T03:43:36.004Z,63.87
2018-04-12T03:44:41.767Z,64.80
2018-04-12T03:45:47.562Z,62.30
2018-04-12T03:46:54.102Z,64.93
2018-04-12T03:47:59.868Z,63.05
2018-04-12T03:49:05.756Z,62.47
2018-04-12T03:50:11.644Z,61.35
2018-04-12T03:51:18.210Z,64.43
2018-04-12T03:52:24.995Z,59.85
2018-04-12T03:53:30.782Z,59.38
2018-04-12T03:54:36.582Z,61.13
2018-04-12T03:55:42.365Z,61.67
2018-04-12T03:56:48.155Z,65.22
2018-04-12T03:57:53.923Z,58.33
2018-04-12T03:58:59.692Z,60.35
2018-04-12T04:00:04.323Z,62.58
2018-04-12T04:01:10.106Z,62.53
2018-04-12T04:02:15.679Z,60.42
2018-04-12T04:03:21.452Z,60.00
2018-04-12T04:04:27.980Z,59.25
2018-04-12T04:05:33.761Z,62.17
2018-04-12T04:06:40.399Z,59.47
2018-04-12T04:07:46.969Z,56.50
2018-04-12T04:08:52.732Z,58.25
2018-04-12T04:09:59.311Z,58.30
2018-04-12T04:11:05.085Z,59.25
2018-04-12T04:12:10.884Z,56.75
2018-04-12T04:13:17.439Z,56.20
2018-04-12T04:14:40.140Z,58.03
2018-04-12T04:16:02.762Z,56.65
2018-04-12T04:17:25.380Z,56.33
2018-04-12T04:18:47.731Z,55.65
2018-04-12T04:20:10.444Z,55.25
2018-04-12T04:21:15.415Z,56.17
2018-04-12T04:22:23.414Z,58.13
2018-04-12T04:23:29.195Z,62.55
2018-04-12T04:24:35.072Z,57.97
2018-04-12T04:25:40.849Z,56.83
2018-04-12T04:26:46.636Z,59.30
2018-04-12T04:27:52.420Z,58.47
2018-04-12T04:28:58.176Z,59.85
2018-04-12T04:30:03.966Z,58.78
2018-04-12T04:31:09.727Z,59.92
2018-04-12T04:32:15.532Z,60.03
2018-04-12T04:33:21.311Z,59.20
2018-04-12T04:34:27.088Z,60.38
2018-04-12T04:35:32.896Z,57.42
2018-04-12T04:36:38.703Z,56.75
2018-04-12T04:37:44.455Z,58.87
2018-04-12T04:38:50.221Z,57.88
2018-04-12T04:39:56.085Z,60.30
2018-04-12T04:41:02.044Z,60.25
2018-04-12T04:42:07.820Z,60.75
2018-04-12T04:43:13.599Z,57.20
2018-04-12T04:44:19.163Z,58.60
2018-04-12T04:45:24.698Z,58.03
2018-04-12T04:46:30.486Z,60.25
2018-04-12T04:47:36.028Z,57.78
2018-04-12T04:48:41.802Z,58.17
2018-04-12T04:49:47.559Z,54.55
2018-04-12T04:50:54.093Z,57.55
2018-04-12T04:51:59.884Z,56.85
2018-04-12T04:53:07.409Z,56.40
2018-04-12T04:54:13.176Z,57.50
2018-04-12T04:55:19.711Z,55.78
2018-04-12T04:56:25.509Z,56.95
2018-04-12T04:57:32.076Z,57.83
2018-04-12T04:58:37.855Z,56.90
2018-04-12T04:59:43.623Z,54.38
2018-04-12T05:00:49.418Z,55.65
2018-04-12T05:01:56.577Z,55.80
2018-04-12T05:03:02.259Z,55.35
2018-04-12T05:04:08.020Z,55.88
2018-04-12T05:05:13.560Z,54.28
2018-04-12T05:06:19.107Z,52.83
2018-04-12T05:07:25.672Z,55.95
2018-04-12T05:08:31.232Z,56.40
2018-04-12T05:09:36.998Z,56.70
2018-04-12T05:10:42.532Z,54.30
2018-04-12T05:11:48.298Z,52.42
2018-04-12T05:12:54.062Z,53.38
2018-04-12T05:13:59.839Z,56.40
2018-04-12T05:15:05.289Z,54.72
2018-04-12T05:16:11.045Z,55.05
2018-04-12T05:17:16.814Z,54.72
2018-04-12T05:18:22.606Z,55.47
2018-04-12T05:19:28.403Z,53.28
2018-04-12T05:20:34.168Z,56.10
2018-04-12T05:21:40.466Z,55.30
2018-04-12T05:22:46.002Z,54.67
2018-04-12T05:23:51.540Z,52.58
2018-04-12T05:24:57.359Z,53.80
2018-04-12T05:26:02.889Z,52.33
2018-04-12T05:27:08.668Z,52.95
2018-04-12T05:28:14.427Z,52.25
2018-04-12T05:29:20.750Z,52.75
2018-04-12T05:30:26.320Z,53.72
2018-04-12T05:31:32.879Z,53.63
2018-04-12T05:32:38.682Z,54.33
2018-04-12T05:33:44.440Z,51.10
2018-04-12T05:34:50.253Z,50.90
2018-04-12T05:35:56.054Z,52.50
2018-04-12T05:37:02.042Z,52.17
2018-04-12T05:38:07.958Z,52.58
2018-04-12T05:39:14.535Z,54.10
2018-04-12T05:40:20.307Z,51.50
2018-04-12T05:41:26.120Z,50.35
2018-04-12T05:42:32.658Z,50.85
2018-04-12T05:43:38.432Z,50.05
2018-04-12T05:44:44.188Z,50.88
2018-04-12T05:45:49.949Z,51.80
2018-04-12T05:46:55.743Z,48.58
2018-04-12T05:48:02.279Z,49.95
2018-04-12T05:49:08.043Z,51.70
2018-04-12T05:50:14.618Z,51.15
2018-04-12T05:51:21.170Z,50.30
2018-04-12T05:52:26.963Z,49.45
2018-04-12T05:53:32.762Z,45.63
2018-04-12T05:54:38.535Z,47.65
2018-04-12T05:55:44.295Z,49.55
2018-04-12T05:56:50.822Z,48.97
2018-04-12T05:57:56.612Z,48.50
2018-04-12T05:59:03.156Z,48.70
2018-04-12T06:00:08.918Z,49.08
2018-04-12T06:01:15.452Z,48.55
2018-04-12T06:02:21.233Z,43.67
2018-04-12T06:03:27.787Z,46.42
2018-04-12T06:04:34.128Z,50.35
2018-04-12T06:05:39.901Z,47.95
2018-04-12T06:06:45.689Z,46.05
2018-04-12T06:07:51.482Z,45.10
2018-04-12T06:08:58.038Z,44.13
2018-04-12T06:10:04.244Z,44.72
2018-04-12T06:11:10.007Z,43.25
2018-04-12T06:12:15.784Z,46.95
2018-04-12T06:13:21.564Z,47.80
2018-04-12T06:14:27.138Z,45.50
2018-04-12T06:15:33.670Z,48.13
2018-04-12T06:16:39.448Z,44.85
2018-04-12T06:17:45.998Z,47.15
2018-04-12T06:18:52.529Z,45.22
2018-04-12T06:19:58.330Z,41.13
2018-04-12T06:21:04.100Z,46.88
2018-04-12T06:22:09.870Z,43.45
2018-04-12T06:23:15.410Z,43.60
2018-04-12T06:24:21.255Z,42.88
2018-04-12T06:25:26.817Z,44.40
2018-04-12T06:26:33.369Z,42.95
2018-04-12T06:27:39.960Z,42.62
2018-04-12T06:28:45.726Z,42.97
2018-04-12T06:29:51.540Z,42.62
2018-04-12T06:30:57.381Z,37.15
2018-04-12T06:32:03.140Z,44.15
2018-04-12T06:33:08.912Z,43.42
2018-04-12T06:34:14.675Z,43.87
2018-04-12T06:35:20.881Z,44.33
2018-04-12T06:36:26.666Z,43.58
2018-04-12T06:37:32.476Z,40.63
2018-04-12T06:38:38.236Z,41.95
2018-04-12T06:39:44.010Z,41.90
2018-04-12T06:40:50.539Z,41.05
2018-04-12T06:41:57.849Z,41.25
2018-04-12T06:43:04.368Z,41.83
2018-04-12T06:44:09.902Z,37.45
2018-04-12T06:45:15.443Z,40.20
2018-04-12T06:46:21.297Z,38.78
2018-04-12T06:47:28.600Z,39.70
2018-04-12T06:48:35.133Z,41.45
2018-04-12T06:49:40.900Z,41.25
2018-04-12T06:50:47.441Z,40.65
2018-04-12T06:51:54.020Z,41.35
2018-04-12T06:53:00.576Z,39.78
2018-04-12T06:54:06.478Z,39.78
2018-04-12T06:55:12.425Z,36.10
2018-04-12T06:56:18.202Z,39.35
2018-04-12T06:57:24.739Z,38.50
2018-04-12T06:58:30.543Z,39.22
2018-04-12T06:59:36.374Z,40.80
2018-04-12T07:00:42.375Z,37.65
2018-04-12T07:01:48.911Z,37.50
2018-04-12T07:02:54.728Z,40.60
2018-04-12T07:04:01.381Z,38.58
2018-04-12T07:05:06.825Z,36.55
2018-04-12T07:06:12.636Z,38.78
2018-04-12T07:07:19.172Z,38.50
2018-04-12T07:08:24.939Z,36.63
2018-04-12T07:09:31.510Z,39.45
2018-04-12T07:10:38.054Z,37.72
2018-04-12T07:11:44.592Z,34.85
2018-04-12T07:12:50.357Z,38.55
2018-04-12T07:13:56.919Z,36.22
2018-04-12T07:15:03.509Z,36.97
2018-04-12T07:16:09.276Z,36.15
2018-04-12T07:17:15.053Z,34.70
2018-04-12T07:18:20.816Z,34.58
2018-04-12T07:19:27.358Z,33.78
2018-04-12T07:20:33.164Z,34.28
2018-04-12T07:21:38.967Z,33.88
2018-04-12T07:22:45.512Z,31.73
2018-04-12T07:23:52.049Z,33.13
2018-04-12T07:24:57.819Z,31.60
2018-04-12T07:26:04.384Z,32.33
2018-04-12T07:27:10.684Z,32.63
2018-04-12T07:28:16.498Z,32.75
2018-04-12T07:29:23.051Z,32.80
2018-04-12T07:30:28.836Z,31.10
2018-04-12T07:31:34.632Z,31.27
2018-04-12T07:32:41.173Z,31.77
2018-04-12T07:33:46.944Z,31.00
2018-04-12T07:34:52.491Z,32.83
2018-04-12T07:35:58.254Z,30.45
2018-04-12T07:37:04.030Z,29.87
2018-04-12T07:38:09.803Z,32.35
2018-04-12T07:39:15.797Z,31.33
2018-04-12T07:40:21.323Z,29.85
2018-04-12T07:41:27.099Z,29.67
2018-04-12T07:42:33.693Z,31.15
2018-04-12T07:43:39.159Z,31.25
2018-04-12T07:44:45.382Z,29.33
2018-04-12T07:45:51.141Z,27.62
2018-04-12T07:46:56.932Z,29.75
2018-04-12T07:48:02.499Z,29.87
2018-04-12T07:49:08.251Z,30.48
2018-04-12T07:50:14.023Z,28.10
2018-04-12T07:51:19.787Z,28.73
2018-04-12T07:52:25.566Z,29.27
2018-04-12T07:53:32.121Z,28.83
2018-04-12T07:54:37.904Z,28.65
2018-04-12T07:55:43.681Z,28.95
2018-04-12T07:56:49.453Z,28.83
2018-04-12T07:57:54.995Z,27.17
2018-04-12T07:59:00.784Z,26.27
2018-04-12T08:00:06.597Z,25.95
2018-04-12T08:01:12.368Z,28.15
2018-04-12T08:02:18.030Z,26.87
2018-04-12T08:03:24.564Z,29.30
2018-04-12T08:04:30.351Z,28.00
2018-04-12T08:05:36.896Z,25.45
2018-04-12T08:06:43.203Z,29.23
2018-04-12T08:07:49.734Z,27.60
2018-04-12T08:08:55.507Z,27.42
2018-04-12T08:10:01.366Z,27.02
2018-04-12T08:11:07.140Z,28.80
2018-04-12T08:12:13.503Z,27.60
2018-04-12T08:13:20.059Z,27.62
2018-04-12T08:14:26.628Z,27.42
2018-04-12T08:15:32.953Z,26.48
2018-04-12T08:16:38.503Z,27.15
2018-04-12T08:17:45.042Z,26.95
2018-04-12T08:18:50.807Z,27.27
2018-04-12T08:19:57.111Z,26.95
2018-04-12T08:21:02.927Z,25.98
2018-04-12T08:22:08.697Z,27.62
2018-04-12T08:23:14.514Z,25.77
2018-04-12T08:24:20.282Z,27.33
2018-04-12T08:25:26.095Z,26.55
2018-04-12T08:26:32.640Z,26.37
2018-04-12T08:27:39.200Z,26.67
2018-04-12T08:28:45.741Z,23.15
2018-04-12T08:29:52.279Z,25.30
2018-04-12T08:30:58.053Z,25.15
2018-04-12T08:32:04.279Z,25.23
2018-04-12T08:33:10.051Z,24.60
2018-04-12T08:34:16.588Z,23.00
2018-04-12T08:35:22.349Z,23.75
2018-04-12T08:36:28.889Z,23.65
2018-04-12T08:37:34.720Z,22.98
2018-04-12T08:38:40.489Z,22.48
2018-04-12T08:39:47.023Z,24.25
2018-04-12T08:40:52.805Z,23.85
2018-04-12T08:41:59.331Z,24.10
2018-04-12T08:43:05.123Z,23.30
2018-04-12T08:44:10.929Z,24.35
2018-04-12T08:45:16.699Z,24.90
2018-04-12T08:46:22.481Z,21.95
2018-04-12T08:47:28.248Z,22.60
2018-04-12T08:48:34.055Z,22.33
2018-04-12T08:49:39.591Z,23.75
2018-04-12T08:50:45.363Z,21.65
2018-04-12T08:51:51.129Z,21.73
2018-04-12T08:52:57.668Z,20.17
2018-04-12T08:54:03.450Z,18.50
2018-04-12T08:55:09.231Z,20.12
2018-04-12T08:56:15.018Z,20.83
2018-04-12T08:57:21.558Z,20.88
2018-04-12T08:58:27.378Z,19.00
2018-04-12T08:59:33.193Z,20.55
2018-04-12T09:00:39.031Z,20.10
2018-04-12T09:01:44.791Z,19.98
2018-04-12T09:02:50.564Z,20.60
2018-04-12T09:03:56.092Z,19.55
2018-04-12T09:05:01.879Z,18.83
2018-04-12T09:06:08.406Z,20.50
2018-04-12T09:07:14.188Z,18.85
2018-04-12T09:08:20.732Z,18.70
2018-04-12T09:09:27.270Z,18.73
2018-04-12T09:10:33.046Z,18.50
2018-04-12T09:11:38.822Z,18.95
2018-04-12T09:12:44.603Z,17.42
2018-04-12T09:13:50.364Z,17.40
2018-04-12T09:14:56.887Z,17.70
2018-04-12T09:16:02.688Z,18.20
2018-04-12T09:17:08.470Z,18.45
2018-04-12T09:18:14.244Z,18.08
2018-04-12T09:19:20.791Z,17.60
2018-04-12T09:20:26.564Z,17.67
2018-04-12T09:21:33.132Z,15.15
2018-04-12T09:22:38.950Z,16.35
2018-04-12T09:23:44.906Z,15.55
2018-04-12T09:24:50.680Z,15.25
2018-04-12T09:25:56.679Z,13.93
2018-04-12T09:27:03.235Z,15.25
2018-04-12T09:28:09.157Z,14.00
2018-04-12T09:29:14.915Z,12.52
2018-04-12T09:30:21.460Z,11.48
2018-04-12T09:31:26.910Z,12.20
2018-04-12T09:32:33.491Z,12.50
2018-04-12T09:33:39.284Z,11.82
2018-04-12T09:34:45.089Z,12.35
2018-04-12T09:35:50.937Z,10.77
2018-04-12T09:36:56.717Z,12.82
2018-04-12T09:38:02.513Z,11.25
2018-04-12T09:39:07.147Z,11.60
2018-04-12T09:40:12.924Z,9.52
2018-04-12T09:41:18.753Z,9.98
2018-04-12T09:42:25.183Z,8.82
2018-04-12T09:43:30.973Z,9.43
2018-04-12T09:44:36.761Z,9.77
2018-04-12T09:45:42.520Z,10.90
2018-04-12T09:46:48.309Z,10.07
2018-04-12T09:47:54.085Z,10.13
2018-04-12T09:48:59.939Z,11.23
2018-04-12T09:50:05.521Z,10.23
2018-04-12T09:51:11.284Z,9.75
2018-04-12T09:52:17.820Z,10.20
2018-04-12T09:53:23.582Z,9.57
2018-04-12T09:54:30.131Z,9.73
2018-04-12T09:55:35.891Z,9.60
2018-04-12T09:56:42.419Z,9.65
2018-04-12T09:57:48.175Z,9.57
2018-04-12T09:58:53.956Z,10.27
2018-04-12T09:59:59.764Z,10.27
2018-04-12T10:01:11.089Z,10.05
2018-04-12T10:02:16.612Z,9.55
2018-04-12T10:03:22.354Z,8.32
2018-04-12T10:04:27.876Z,9.07
2018-04-12T10:05:34.190Z,9.13
2018-04-12T10:06:39.932Z,7.95
2018-04-12T10:07:50.945Z,8.38
2018-04-12T10:09:01.935Z,8.93
2018-04-12T10:10:07.895Z,8.38
2018-04-12T10:11:13.667Z,8.02
2018-04-12T10:12:19.418Z,7.28
2018-04-12T10:13:25.976Z,7.75
2018-04-12T10:14:32.515Z,8.40
2018-04-12T10:15:38.293Z,7.32
2018-04-12T10:16:44.836Z,7.28
2018-04-12T10:17:51.420Z,7.55
2018-04-12T10:18:57.979Z,7.90
2018-04-12T10:20:03.921Z,7.40
2018-04-12T10:21:10.444Z,7.00
2018-04-12T10:22:16.213Z,7.62
2018-04-12T10:23:22.407Z,7.82
2018-04-12T10:24:28.180Z,7.20
2018-04-12T10:25:33.983Z,8.10
2018-04-12T10:26:39.893Z,6.53
2018-04-12T10:27:46.435Z,7.20
2018-04-12T10:28:52.196Z,6.93
2018-04-12T10:29:58.492Z,7.37
2018-04-12T10:31:04.015Z,6.35
2018-04-12T10:32:09.528Z,7.50
2018-04-12T10:33:16.079Z,7.00
2018-04-12T10:34:22.588Z,5.62
2018-04-12T10:35:28.333Z,6.65
2018-04-12T10:36:34.080Z,6.85
2018-04-12T10:37:39.833Z,7.60
2018-04-12T10:38:45.673Z,6.72
2018-04-12T10:39:52.343Z,7.97
2018-04-12T10:40:58.129Z,8.10
2018-04-12T10:42:04.649Z,7.00
2018-04-12T10:43:11.178Z,7.60
2018-04-12T10:44:16.709Z,7.95
2018-04-12T10:45:21.891Z,7.53
2018-04-12T10:46:28.167Z,8.18
2018-04-12T10:47:33.912Z,7.55
2018-04-12T10:48:39.660Z,7.15
2018-04-12T10:49:45.442Z,6.53
2018-04-12T10:50:51.195Z,7.85
2018-04-12T10:51:56.976Z,7.57
2018-04-12T10:53:03.671Z,7.30
2018-04-12T10:54:09.431Z,7.30
2018-04-12T10:55:15.206Z,8.50
2018-04-12T10:56:21.500Z,7.90
2018-04-12T10:57:27.793Z,9.10
2018-04-12T10:58:33.556Z,7.78
2018-04-12T10:59:39.839Z,7.80
2018-04-12T11:00:45.616Z,7.85
2018-04-12T11:01:51.144Z,7.82
2018-04-12T11:02:57.044Z,8.18
2018-04-12T11:04:03.560Z,8.75
2018-04-12T11:05:09.372Z,8.93
2018-04-12T11:06:15.144Z,8.30
2018-04-12T11:07:20.903Z,9.30
2018-04-12T11:08:26.426Z,8.85
2018-04-12T11:09:32.265Z,8.82
2018-04-12T11:10:38.049Z,7.35
2018-04-12T11:11:44.592Z,8.45
2018-04-12T11:12:51.119Z,7.90
2018-04-12T11:13:56.911Z,8.77
2018-04-12T11:15:03.470Z,8.73
2018-04-12T11:16:09.984Z,7.70
2018-04-12T11:17:15.763Z,7.85
2018-04-12T11:18:22.354Z,8.60
2018-04-12T11:19:28.264Z,9.25
2018-04-12T11:20:34.839Z,11.18
2018-04-12T11:21:40.400Z,9.80
2018-04-12T11:22:46.195Z,10.27
2018-04-12T11:23:51.952Z,8.77
2018-04-12T11:24:58.490Z,8.90
2018-04-12T11:26:04.444Z,9.05
2018-04-12T11:27:11.078Z,9.70
2018-04-12T11:28:17.028Z,9.98
2018-04-12T11:29:22.783Z,7.95
2018-04-12T11:30:28.547Z,8.13
2018-04-12T11:31:35.079Z,9.82
2018-04-12T11:32:41.840Z,9.43
2018-04-12T11:33:47.622Z,9.45
2018-04-12T11:34:53.381Z,9.43
2018-04-12T11:35:59.293Z,10.48
2018-04-12T11:37:05.824Z,9.60
2018-04-12T11:38:11.608Z,9.25
2018-04-12T11:39:17.604Z,9.68
2018-04-12T11:40:23.378Z,9.65
2018-04-12T11:41:29.964Z,9.18
2018-04-12T11:42:35.295Z,9.75
2018-04-12T11:43:41.070Z,9.90
2018-04-12T11:44:46.853Z,9.93
2018-04-12T11:45:53.372Z,9.55
2018-04-12T11:46:59.150Z,10.25
2018-04-12T11:48:04.910Z,9.55
2018-04-12T11:49:11.276Z,9.02
2018-04-12T11:50:17.055Z,10.27
2018-04-12T11:51:22.836Z,8.20
2018-04-12T11:52:29.368Z,10.13
2018-04-12T11:53:35.129Z,9.30
2018-04-12T11:54:40.896Z,9.73
2018-04-12T11:55:47.439Z,10.35
2018-04-12T11:56:53.971Z,10.18
2018-04-12T11:57:59.754Z,10.13
2018-04-12T11:59:06.271Z,9.82
2018-04-12T12:00:12.031Z,9.55
2018-04-12T12:01:17.821Z,7.37
2018-04-12T12:02:23.594Z,9.98
2018-04-12T12:03:29.540Z,9.77
2018-04-12T12:04:35.298Z,9.35
2018-04-12T12:05:41.055Z,9.70
2018-04-12T12:06:47.638Z,9.35
2018-04-12T12:07:54.151Z,9.07
2018-04-12T12:08:59.911Z,8.07
2018-04-12T12:10:05.343Z,9.05
2018-04-12T12:11:12.617Z,9.50
2018-04-12T12:12:18.167Z,10.23
2018-04-12T12:13:23.935Z,8.75
2018-04-12T12:14:29.684Z,8.80
2018-04-12T12:15:36.387Z,9.02
2018-04-12T12:16:42.145Z,8.90
2018-04-12T12:17:47.935Z,9.07
2018-04-12T12:18:53.741Z,8.68
2018-04-12T12:19:59.918Z,9.45
2018-04-12T12:21:05.680Z,9.63
2018-04-12T12:22:11.427Z,8.60
2018-04-12T12:23:17.216Z,9.30
2018-04-12T12:24:23.742Z,9.20
2018-04-12T12:25:29.495Z,8.25
2018-04-12T12:26:36.011Z,8.15
2018-04-12T12:27:41.764Z,8.38
2018-04-12T12:28:47.348Z,8.48
2018-04-12T12:29:53.096Z,8.55
2018-04-12T12:30:58.834Z,8.00
2018-04-12T12:32:04.602Z,8.38
2018-04-12T12:33:11.111Z,8.95
2018-04-12T12:34:16.917Z,8.70
2018-04-12T12:35:22.671Z,8.27
2018-04-12T12:36:28.424Z,8.35
2018-04-12T12:37:34.174Z,8.05
2018-04-12T12:38:39.931Z,9.25
2018-04-12T12:39:45.707Z,8.25
2018-04-12T12:40:52.230Z,8.80
2018-04-12T12:41:58.186Z,8.80
2018-04-12T12:43:03.943Z,8.68
2018-04-12T12:44:10.137Z,8.55
2018-04-12T12:45:15.938Z,8.10
2018-04-12T12:46:22.465Z,8.10
2018-04-12T12:47:29.940Z,8.30
2018-04-12T12:48:35.974Z,8.65
2018-04-12T12:49:41.734Z,8.77
2018-04-12T12:50:47.558Z,9.27
2018-04-12T12:51:54.244Z,8.40
2018-04-12T12:53:00.021Z,8.73
2018-04-12T12:54:06.591Z,8.65
2018-04-12T12:55:12.343Z,7.85
2018-04-12T12:56:18.123Z,7.35
2018-04-12T12:57:23.903Z,7.53
2018-04-12T12:58:30.418Z,8.20
2018-04-12T12:59:36.514Z,8.57
2018-04-12T13:00:42.879Z,7.82
2018-04-12T13:01:49.541Z,7.30
2018-04-12T13:02:56.307Z,7.55
2018-04-12T13:04:02.851Z,7.47
2018-04-12T13:05:09.530Z,6.87
2018-04-12T13:06:15.316Z,8.52
2018-04-12T13:07:21.181Z,7.62
2018-04-12T13:08:26.936Z,6.20
2018-04-12T13:09:33.480Z,7.45
2018-04-12T13:10:40.025Z,8.57
2018-04-12T13:11:46.636Z,6.82
2018-04-12T13:12:53.244Z,7.97
2018-04-12T13:14:00.170Z,6.43
2018-04-12T13:15:06.704Z,5.65
2018-04-12T13:16:12.459Z,6.30
2018-04-12T13:17:19.783Z,6.45
2018-04-12T13:18:25.589Z,6.47
2018-04-12T13:19:32.107Z,6.70
2018-04-12T13:20:37.873Z,6.28
2018-04-12T13:21:43.798Z,6.62
2018-04-12T13:22:49.554Z,6.93
2018-04-12T13:23:57.287Z,6.93
2018-04-12T13:25:03.599Z,7.18
2018-04-12T13:26:09.560Z,9.45
2018-04-12T13:27:16.167Z,8.35
2018-04-12T13:28:22.682Z,9.40
2018-04-12T13:29:29.083Z,8.80
2018-04-12T13:30:34.887Z,7.55
2018-04-12T13:31:41.173Z,7.65
2018-04-12T13:32:46.947Z,8.20
2018-04-12T13:33:53.849Z,8.18
2018-04-12T13:35:01.358Z,7.72
2018-04-12T13:36:07.281Z,7.87
2018-04-12T13:37:13.062Z,7.12
2018-04-12T13:38:20.605Z,7.95
2018-04-12T13:39:26.529Z,7.22
2018-04-12T13:40:32.488Z,7.28
2018-04-12T13:41:38.379Z,5.37
2018-04-12T13:42:45.046Z,6.68
2018-04-12T13:43:51.548Z,6.68
2018-04-12T13:44:58.691Z,5.50
2018-04-12T13:46:05.260Z,6.37
2018-04-12T13:47:11.021Z,6.15
2018-04-12T13:48:18.204Z,6.07
2018-04-12T13:49:24.733Z,5.70
2018-04-12T13:50:30.510Z,6.20
2018-04-12T13:51:37.132Z,6.43
2018-04-12T13:52:47.859Z,6.75
2018-04-12T13:53:53.382Z,6.20
2018-04-12T13:54:59.143Z,6.35
2018-04-12T13:56:04.897Z,5.82
2018-04-12T13:57:10.673Z,5.80
2018-04-12T13:58:16.447Z,6.37
2018-04-12T13:59:22.209Z,5.20
2018-04-12T14:00:27.964Z,6.47
2018-04-12T14:01:33.658Z,6.10
2018-04-12T14:02:39.583Z,6.10
2018-04-12T14:03:45.347Z,5.93
2018-04-12T14:04:51.278Z,4.22
2018-04-12T14:05:57.827Z,5.00
2018-04-12T14:07:04.373Z,5.12
2018-04-12T14:08:10.234Z,5.80
2018-04-12T14:09:17.525Z,3.60
2018-04-12T14:10:24.445Z,4.05
2018-04-12T14:11:30.347Z,4.07
2018-04-12T14:12:36.131Z,3.45
2018-04-12T14:13:42.885Z,5.20
2018-04-12T14:14:48.640Z,3.87
2018-04-12T14:15:54.398Z,3.60
2018-04-12T14:17:00.168Z,4.40
2018-04-12T14:18:07.407Z,3.90
2018-04-12T14:19:13.231Z,3.90
2018-04-12T14:20:19.040Z,3.12